Terminal Aerodrome Forecast
Issued by NWS

Home | Current Version | Previous Version | Text Only | Print | Product List | Glossary On
Versions: 1 2 3 4 5 6 7 8 9 10 11 12 13 14 15 16 17 18 19 20 21 22 23 24 25 26 27 28 29 30 31 32 33 34 35 36
000
FTUS45 KGJT 260125 AAA
TAFEGE
TAF AMD
KEGE 260125Z 2601/2624 04010KT P6SM VCSH BKN070
     FM260600 00000KT P6SM VCSH BKN060
     FM261000 VRB03KT P6SM VCSH BKN060
     FM261800 25006KT P6SM BKN060
     FM262000 25010KT P6SM BKN060
      AMD LTD TO CLD VIS AND WIND 2601/2613=

USA.gov is the U.S. government's official web portal to all federal, state and local government web resources and services.